Auburn, Georgia
Current Conditions -  °F | °C
As of 12:45 PM on Thursday 23 Oct 2014 (Local Time) from KLZU Reporting Station
Clear Clear  
Wind Chill: 63°   Ceiling: Unl
Heat Index: 63°   Visibility: 10mi
Dew Point: 39°   Wind: 7mph
Humidity: 42%   Direction: 230°SW
Pressure: 30.1"   Gusts: NA
Location:  34.01°N, 83.83°W
Report Text: KLZU 231645Z 23006KT 10SM CLR 17/04 A3010 RMK ATIS K ; RWY 25 ; BK
Loading
Personal Weather Stations






























Interactive Weather Map
Tropical Storm Tracking
New forecast layout! Learn more

10-Day Weather Forecast

Advertisements
Track Severe Weather on mobile